UGKO/KIU METAR and TAF weather

Enter ICAO airport designator
Station Type Date Time Source
UGKO METAR 2020/07/05 16:30 UTC NOAA

UGKO 051630Z 27010KT 9999 SCT100 28/22 Q1007 NOSIG


Station Type Date Time Source
UGKO Decoded METAR 2020/07/05 16:30 UTC NOAA

Station name not available
Jul 05, 2020 - 12:30 PM EDT / 2020.07.05 1630 UTC
Wind: from the W (270 degrees) at 12 MPH (10 KT):0
Visibility: greater than 7 mile(s):0
Sky conditions: partly cloudy
Temperature: 82 F (28 C)
Dew Point: 71 F (22 C)
Relative Humidity: 69%
Pressure (altimeter): 29.74 in. Hg (1007 hPa)
ob: UGKO 051630Z 27010KT 9999 SCT100 28/22 Q1007 NOSIG
cycle: 16

Station Type Date Time Source
UGKO TAF 2020/07/05 12:06 UTC NOAA

TAF UGKO 051100Z 0512/0612 25007KT 9999 SCT100 TX35/0512Z TN21/0602Z
TEMPO 0512/0518 25017KT SCT050TCU PROB40
TEMPO 0600/0605 0500 FG VV002
BECMG 0604/0607 08010KT CAVOK
TEMPO 0607/0612 08016G27KT

Example: see airport list